»·PEaware :: UAL524 KPDX-KSFO

UAL524 :: KPDX-KSFO

FLIGHT INFORMATION

Flight Status: Arrived
Operator:
United Airlines
More flights by this operator :: More flights under this callsign
Pilot: Brogan Lopez (12398)
Aircraft: BOEING 757-200
(B752)
More flights by this aircraft type
Origin: KPDX Portland Intl
United States
Destination: KSFO San Francisco Intl
United States
More flights between these airports :: More routes between these airports
Route: MINNE5 FAMUK Q3 FOWND MLBEC BDEGA2
File this flight plan on PilotEdge
Remarks:
Altitude:
(Current/Filed)
35,000ft
Speed:
(Current/Filed)
450kts
Departed: 09-Jan-17 11:22 AM
Arrived: 09-Jan-17 12:52 PM
Distance/Time
Traveled:
478nm/1:30
Distance/Time
To Go:
Arrived

Flight Plot

Page will automatically refresh every two minutes.

Flight plan parsing failed; only flown route is shown


Map Options




Map Legend


Flown Route
Filed Route
Departure Airport
Arrival Airport
Navaid (VOR, NDB)
Fix

Horizontal Profiles

Position Reports

Time Latitude Longitude Heading Altitude Ground
Speed
09-Jan-17 10:54 45.590081 -122.591018 209 41ft 0kts
09-Jan-17 10:55 45.590081 -122.591018 209 41ft 0kts
09-Jan-17 10:56 45.590081 -122.591018 209 41ft 0kts
09-Jan-17 10:57 45.590081 -122.591018 209 41ft 0kts
09-Jan-17 10:58 45.590081 -122.591018 209 41ft 0kts
09-Jan-17 10:59 45.590081 -122.591018 209 41ft 0kts
09-Jan-17 11:00 45.590081 -122.591018 209 41ft 0kts
09-Jan-17 11:01 45.590081 -122.591018 209 41ft 0kts
09-Jan-17 11:02 45.590081 -122.591018 209 41ft 0kts
09-Jan-17 11:03 45.590081 -122.591018 209 41ft 0kts
09-Jan-17 11:04 45.590081 -122.591018 209 41ft 0kts
09-Jan-17 11:05 45.590081 -122.591018 209 41ft 0kts
09-Jan-17 11:06 45.590081 -122.591018 209 41ft 0kts
09-Jan-17 11:07 45.590081 -122.591018 209 41ft 0kts
09-Jan-17 11:08 45.590081 -122.591018 209 41ft 0kts
09-Jan-17 11:09 45.590081 -122.591018 209 41ft 0kts
09-Jan-17 11:10 45.590081 -122.591018 209 41ft 0kts
09-Jan-17 11:11 45.590081 -122.591018 209 41ft 0kts
09-Jan-17 11:12 45.590081 -122.591018 209 41ft 0kts
09-Jan-17 11:13 45.590081 -122.591018 209 41ft 0kts
09-Jan-17 11:14 45.590363 -122.590783 240 40ft 1kts
09-Jan-17 11:15 45.590374 -122.590644 297 40ft 0kts
09-Jan-17 11:16 45.590374 -122.590644 297 40ft 0kts
09-Jan-17 11:17 45.590568 -122.591146 307 40ft 7kts
09-Jan-17 11:18 45.592515 -122.595126 299 41ft 17kts
09-Jan-17 11:19 45.595333 -122.601015 28 40ft 11kts
09-Jan-17 11:20 45.595550 -122.600763 41 40ft 0kts
09-Jan-17 11:21 45.595550 -122.600763 41 40ft 0kts
09-Jan-17 11:22 45.593372 -122.591924 118 41ft 116kts
09-Jan-17 11:23 45.578427 -122.538728 96 2081ft 173kts
09-Jan-17 11:24 45.565482 -122.458567 106 4718ft 238kts
09-Jan-17 11:25 45.548490 -122.368900 110 8386ft 256kts
09-Jan-17 11:26 45.497555 -122.318299 177 10771ft 276kts
09-Jan-17 11:27 45.422693 -122.339781 225 12532ft 327kts
09-Jan-17 11:28 45.384376 -122.453828 247 15861ft 340kts
09-Jan-17 11:29 45.349345 -122.569263 245 18542ft 355kts
09-Jan-17 11:30 45.308012 -122.698869 245 21115ft 370kts
09-Jan-17 11:31 45.266181 -122.828524 245 22802ft 382kts
09-Jan-17 11:32 45.207856 -122.947577 218 24063ft 395kts
09-Jan-17 11:33 45.102435 -122.993813 194 25853ft 419kts
09-Jan-17 11:34 44.991595 -123.018858 195 27605ft 425kts
09-Jan-17 11:35 44.875957 -123.046552 196 29080ft 434kts
09-Jan-17 11:36 44.761459 -123.073393 196 30560ft 437kts
09-Jan-17 11:37 44.643825 -123.099822 195 32163ft 435kts
09-Jan-17 11:38 44.527211 -123.126064 197 33635ft 431kts
09-Jan-17 11:39 44.407597 -123.130640 187 34822ft 440kts
09-Jan-17 11:40 44.287850 -123.127113 186 34832ft 439kts
09-Jan-17 11:41 44.171280 -123.122962 186 34836ft 439kts
09-Jan-17 11:42 44.049802 -123.118580 186 34840ft 439kts
09-Jan-17 11:43 43.931610 -123.113662 186 34840ft 439kts
09-Jan-17 11:44 43.812184 -123.109102 186 34839ft 439kts
09-Jan-17 11:45 43.696996 -123.105234 187 34838ft 437kts
09-Jan-17 11:46 43.582124 -123.101311 185 34875ft 440kts
09-Jan-17 11:47 43.460845 -123.095675 186 34910ft 438kts
09-Jan-17 11:48 43.345503 -123.091747 187 34915ft 437kts
09-Jan-17 11:49 43.227063 -123.088845 187 34915ft 437kts
09-Jan-17 11:50 43.107977 -123.085833 186 34914ft 437kts
09-Jan-17 11:51 42.990708 -123.081695 186 34914ft 436kts
09-Jan-17 11:52 42.875647 -123.076883 188 34915ft 432kts
09-Jan-17 11:53 42.760943 -123.072305 188 34920ft 432kts
09-Jan-17 11:54 42.641961 -123.067588 188 34921ft 431kts
09-Jan-17 11:55 42.522532 -123.063918 190 34922ft 429kts
09-Jan-17 11:56 42.404865 -123.061890 188 34928ft 431kts
09-Jan-17 11:57 42.285262 -123.056929 188 34926ft 432kts
09-Jan-17 11:58 42.165930 -123.052078 188 34927ft 430kts
09-Jan-17 11:59 42.047609 -123.048122 188 34926ft 430kts
09-Jan-17 12:00 41.929705 -123.044334 189 34924ft 429kts
09-Jan-17 12:01 41.812396 -123.041694 189 34923ft 429kts
09-Jan-17 12:02 41.695563 -123.038218 189 34921ft 428kts
09-Jan-17 12:03 41.578246 -123.035635 189 34923ft 429kts
09-Jan-17 12:04 41.460871 -123.032184 188 34921ft 428kts
09-Jan-17 12:05 41.343945 -123.027704 188 34927ft 428kts
09-Jan-17 12:06 41.228008 -123.022899 188 34928ft 428kts
09-Jan-17 12:07 41.114394 -123.019026 189 34925ft 427kts
09-Jan-17 12:08 40.997372 -123.016545 190 34984ft 433kts
09-Jan-17 12:09 40.876873 -123.013098 189 35016ft 437kts
09-Jan-17 12:10 40.756020 -123.006764 188 35018ft 440kts
09-Jan-17 12:11 40.635282 -123.000958 189 35016ft 437kts
09-Jan-17 12:12 40.515565 -122.997044 189 35017ft 435kts
09-Jan-17 12:13 40.395381 -122.993451 189 35019ft 437kts
09-Jan-17 12:14 40.274769 -122.989893 189 35026ft 435kts
09-Jan-17 12:15 40.155591 -122.988675 190 35054ft 434kts
09-Jan-17 12:16 40.035093 -122.986636 189 35071ft 435kts
09-Jan-17 12:17 39.914885 -122.983370 189 35076ft 435kts
09-Jan-17 12:18 39.794466 -122.981689 190 35085ft 433kts
09-Jan-17 12:19 39.675345 -122.978999 189 35105ft 434kts
09-Jan-17 12:20 39.556426 -122.975690 189 35108ft 435kts
09-Jan-17 12:21 39.438090 -122.972307 189 35110ft 434kts
09-Jan-17 12:22 39.320872 -122.968945 189 35111ft 434kts
09-Jan-17 12:23 39.208460 -122.965160 189 35109ft 434kts
09-Jan-17 12:24 39.112291 -122.962224 190 35109ft 433kts
09-Jan-17 12:25 38.981437 -122.960114 190 35112ft 419kts
09-Jan-17 12:26 38.866350 -122.954420 180 35159ft 448kts
09-Jan-17 12:27 38.747058 -122.920236 177 32503ft 455kts
09-Jan-17 12:28 38.657191 -122.893804 177 30367ft 453kts
09-Jan-17 12:29 38.541491 -122.858970 177 28216ft 422kts
09-Jan-17 12:30 38.419470 -122.822581 176 24928ft 393kts
09-Jan-17 12:31 38.319228 -122.792691 176 22807ft 376kts
09-Jan-17 12:32 38.238986 -122.769616 176 21187ft 366kts
09-Jan-17 12:33 38.146763 -122.742932 175 19258ft 354kts
09-Jan-17 12:34 38.041437 -122.712936 175 17132ft 341kts
09-Jan-17 12:35 37.955540 -122.687418 174 15431ft 332kts
09-Jan-17 12:36 37.886428 -122.657759 149 13995ft 343kts
09-Jan-17 12:37 37.822185 -122.590036 147 12361ft 335kts
09-Jan-17 12:38 37.760045 -122.524386 146 11165ft 314kts
09-Jan-17 12:39 37.701741 -122.462873 147 11014ft 288kts
09-Jan-17 12:40 37.646609 -122.403874 147 10563ft 268kts
09-Jan-17 12:41 37.592199 -122.353932 152 8270ft 254kts
09-Jan-17 12:42 37.541812 -122.313993 152 7094ft 219kts
09-Jan-17 12:43 37.495170 -122.277466 151 6001ft 215kts
09-Jan-17 12:44 37.447160 -122.240870 150 4855ft 214kts
09-Jan-17 12:45 37.425159 -122.185811 52 4055ft 217kts
09-Jan-17 12:46 37.479741 -122.161140 354 4082ft 207kts
09-Jan-17 12:47 37.533421 -122.175931 302 3450ft 195kts
09-Jan-17 12:48 37.559054 -122.233710 296 2341ft 184kts
09-Jan-17 12:49 37.579483 -122.281755 294 1415ft 136kts
09-Jan-17 12:50 37.596424 -122.322402 294 635ft 130kts
09-Jan-17 12:51 37.612858 -122.361041 293 52ft 128kts
09-Jan-17 12:52 37.618971 -122.378780 277 25ft 17kts
09-Jan-17 12:53 37.620350 -122.383656 297 24ft 17kts
09-Jan-17 12:54 37.618850 -122.385228 155 25ft 0kts

Navigation Log

Ident Type Via Name
Flight plan parsing failed, navigation log unavailable